createdAt,value
2022-10-14T00:04:33.842Z,101039.16
2022-10-14T00:09:35.235Z,101033.38
2022-10-14T00:14:36.606Z,101029.56
2022-10-14T00:19:38.058Z,101030.00
2022-10-14T00:24:39.655Z,101028.13
2022-10-14T00:29:41.101Z,101026.56
2022-10-14T00:34:42.755Z,101028.25
2022-10-14T00:39:44.168Z,101037.50
2022-10-14T00:44:45.849Z,101027.34
2022-10-14T00:49:47.639Z,101022.50
2022-10-14T00:55:00.230Z,101030.91
2022-10-14T01:00:07.307Z,101034.78
2022-10-14T01:05:10.984Z,101026.28
2022-10-14T01:10:53.874Z,101005.56
2022-10-14T01:16:17.851Z,101003.69
2022-10-14T01:21:52.874Z,101000.28
2022-10-14T01:27:16.517Z,100992.16
2022-10-14T01:32:29.159Z,100978.69
2022-10-14T01:37:34.670Z,100974.31
2022-10-14T01:42:40.026Z,100979.00
2022-10-14T01:47:42.190Z,100977.63
2022-10-14T01:52:52.247Z,100961.94
2022-10-14T01:57:57.186Z,100962.19
2022-10-14T02:02:59.457Z,100955.75
2022-10-14T02:08:19.594Z,100952.84
2022-10-14T02:13:45.303Z,100945.88
2022-10-14T02:19:23.123Z,100945.78
2022-10-14T02:24:32.118Z,100947.50
2022-10-14T02:29:34.900Z,100943.78
2022-10-14T02:34:37.702Z,100933.34
2022-10-14T02:39:54.930Z,100922.25
2022-10-14T02:45:03.407Z,100916.59
2022-10-14T02:50:05.229Z,100912.88
2022-10-14T02:55:06.968Z,100907.03
2022-10-14T03:00:09.189Z,100900.66
2022-10-14T03:05:10.954Z,100902.41
2022-10-14T03:10:14.088Z,100898.06
2022-10-14T03:15:16.113Z,100897.19
2022-10-14T03:20:17.765Z,100894.72
2022-10-14T03:25:24.126Z,100887.38
2022-10-14T03:30:31.519Z,100889.25
2022-10-14T03:35:39.130Z,100880.50
2022-10-14T03:40:45.630Z,100882.97
2022-10-14T03:45:48.447Z,100875.16
2022-10-14T03:50:53.345Z,100875.06
2022-10-14T03:55:55.252Z,100878.53
2022-10-14T04:00:57.072Z,100876.03
2022-10-14T04:06:31.380Z,100870.25
2022-10-14T04:11:35.760Z,100876.78
2022-10-14T04:16:43.951Z,100873.44
2022-10-14T04:21:47.926Z,100867.34
2022-10-14T04:26:52.297Z,100871.69
2022-10-14T04:32:01.925Z,100850.78
2022-10-14T04:37:04.209Z,100861.78
2022-10-14T04:42:37.897Z,100853.28
2022-10-14T04:47:48.361Z,100841.72
2022-10-14T04:52:52.275Z,100848.56
2022-10-14T04:57:54.695Z,100835.09
2022-10-14T05:02:56.419Z,100822.72
2022-10-14T05:08:04.533Z,100823.56
2022-10-14T05:13:12.826Z,100825.97
2022-10-14T05:18:26.675Z,100814.13
2022-10-14T05:23:35.577Z,100813.78
2022-10-14T05:28:40.529Z,100815.63
2022-10-14T05:33:43.309Z,100819.69
2022-10-14T05:38:45.398Z,100807.03
2022-10-14T05:43:46.887Z,100803.66
2022-10-14T05:48:48.404Z,100804.44
2022-10-14T05:53:50.346Z,100800.47
2022-10-14T05:58:53.584Z,100784.22
2022-10-14T06:03:55.898Z,100789.25
2022-10-14T06:08:57.856Z,100800.03
2022-10-14T06:14:00.177Z,100794.09
2022-10-14T06:19:02.123Z,100795.63
2022-10-14T06:24:03.742Z,100787.22
2022-10-14T06:29:05.258Z,100789.34
2022-10-14T06:34:07.297Z,100784.81
2022-10-14T06:39:09.632Z,100780.91
2022-10-14T06:44:11.290Z,100778.03
2022-10-14T06:49:12.837Z,100774.13
2022-10-14T06:54:14.295Z,100765.84
2022-10-14T06:59:15.805Z,100767.56
2022-10-14T07:04:17.342Z,100762.09
2022-10-14T07:09:19.145Z,100750.66
2022-10-14T07:14:20.716Z,100753.69
2022-10-14T07:19:22.430Z,100759.59
2022-10-14T07:24:23.818Z,100759.47
2022-10-14T07:29:25.315Z,100754.28
2022-10-14T07:34:27.246Z,100743.25
2022-10-14T07:39:28.954Z,100753.69
2022-10-14T07:44:30.397Z,100747.16
2022-10-14T07:49:32.137Z,100746.44
2022-10-14T07:54:33.531Z,100748.22
2022-10-14T07:59:35.001Z,100756.63
2022-10-14T08:04:36.427Z,100754.16
2022-10-14T08:09:37.873Z,100737.28
2022-10-14T08:14:39.518Z,100743.78
2022-10-14T08:19:40.943Z,100737.28
2022-10-14T08:24:42.577Z,100729.44
2022-10-14T08:29:44.042Z,100719.81
2022-10-14T08:34:45.557Z,100711.09
2022-10-14T08:39:47.118Z,100716.19
2022-10-14T08:44:55.624Z,100701.84
2022-10-14T08:50:07.466Z,100707.66
2022-10-14T08:55:26.882Z,100709.00
2022-10-14T09:00:31.037Z,100694.69
2022-10-14T09:05:32.672Z,100684.19
2022-10-14T09:10:40.694Z,100693.31
2022-10-14T09:15:46.551Z,100688.50
2022-10-14T09:20:53.146Z,100680.44
2022-10-14T09:26:14.759Z,100681.16
2022-10-14T09:31:16.180Z,100687.34
2022-10-14T09:36:20.789Z,100681.28
2022-10-14T09:41:28.558Z,100682.28
2022-10-14T09:46:30.043Z,100676.16
2022-10-14T09:51:34.029Z,100676.56
2022-10-14T09:56:41.608Z,100676.94
2022-10-14T10:02:01.931Z,100668.91
2022-10-14T10:07:22.892Z,100673.88
2022-10-14T10:12:30.108Z,100667.81
2022-10-14T10:17:37.985Z,100661.50
2022-10-14T10:22:39.837Z,100650.91
2022-10-14T10:27:43.314Z,100659.44
2022-10-14T10:33:08.755Z,100650.47
2022-10-14T10:38:23.323Z,100652.69
2022-10-14T10:43:40.204Z,100646.75
2022-10-14T10:48:47.460Z,100642.56
2022-10-14T10:54:02.408Z,100638.50
2022-10-14T10:59:25.147Z,100624.41
2022-10-14T11:04:37.262Z,100620.00
2022-10-14T11:10:20.886Z,100619.19
2022-10-14T11:15:36.995Z,100608.81
2022-10-14T11:21:05.535Z,100611.63
2022-10-14T11:26:32.311Z,100599.66
2022-10-14T11:31:39.706Z,100594.22
2022-10-14T11:36:56.142Z,100585.06
2022-10-14T11:42:03.855Z,100580.25
2022-10-14T11:47:14.242Z,100586.72
2022-10-14T11:52:29.599Z,100569.44
2022-10-14T11:57:38.176Z,100574.06
2022-10-14T12:02:52.315Z,100575.19
2022-10-14T12:08:40.682Z,100565.56
2022-10-14T12:13:50.359Z,100557.31
2022-10-14T12:18:58.351Z,100552.91
2022-10-14T12:24:11.836Z,100546.47
2022-10-14T12:29:18.659Z,100538.72
2022-10-14T12:34:41.447Z,100533.00
2022-10-14T12:39:42.867Z,100529.38
2022-10-14T12:44:48.061Z,100519.28
2022-10-14T12:49:53.451Z,100521.06
2022-10-14T12:54:55.930Z,100490.75
2022-10-14T13:00:01.496Z,100478.66
2022-10-14T13:05:06.955Z,100483.81
2022-10-14T13:10:41.873Z,100483.88
2022-10-14T13:15:52.579Z,100478.44
2022-10-14T13:20:54.374Z,100474.81
2022-10-14T13:26:27.131Z,100472.75
2022-10-14T13:31:49.023Z,100470.69
2022-10-14T13:37:12.268Z,100463.78
2022-10-14T13:42:25.536Z,100452.81
2022-10-14T13:47:27.228Z,100451.03
2022-10-14T13:52:29.387Z,100453.63
2022-10-14T14:02:56.765Z,100444.59
2022-10-14T14:08:34.831Z,100438.34
2022-10-14T14:13:24.793Z,100434.38
2022-10-14T14:18:55.684Z,100425.97
2022-10-14T14:24:01.076Z,100415.69
2022-10-14T14:29:20.386Z,100426.41
2022-10-14T14:34:23.438Z,100404.94
2022-10-14T14:39:29.355Z,100411.88
2022-10-14T14:44:33.904Z,100415.81
2022-10-14T14:49:38.402Z,100415.97
2022-10-14T14:54:47.475Z,100410.63
2022-10-14T14:59:59.463Z,100402.50
2022-10-14T15:05:07.508Z,100395.56
2022-10-14T15:10:22.339Z,100390.22
2022-10-14T15:15:32.886Z,100387.63
2022-10-14T15:20:42.056Z,100382.59
2022-10-14T15:25:58.077Z,100382.78
2022-10-14T15:31:03.148Z,100379.31
2022-10-14T15:36:10.498Z,100376.78
2022-10-14T15:41:11.931Z,100369.63
2022-10-14T15:46:34.063Z,100372.53
2022-10-14T15:51:35.482Z,100368.56
2022-10-14T15:56:36.951Z,100380.41
2022-10-14T16:01:41.015Z,100372.00
2022-10-14T16:06:42.444Z,100369.59
2022-10-14T16:11:43.944Z,100380.34
2022-10-14T16:16:46.139Z,100373.84
2022-10-14T16:21:49.657Z,100365.94
2022-10-14T16:26:51.918Z,100362.66
2022-10-14T16:31:54.266Z,100358.50
2022-10-14T16:36:55.681Z,100361.34
2022-10-14T16:41:58.332Z,100359.63
2022-10-14T16:47:19.519Z,100368.28
2022-10-14T16:52:21.561Z,100366.59
2022-10-14T16:57:23.238Z,100357.97
2022-10-14T17:02:31.674Z,100374.03
2022-10-14T17:07:33.826Z,100372.31
2022-10-14T17:12:35.979Z,100381.31
2022-10-14T17:17:39.830Z,100376.13
2022-10-14T17:22:42.834Z,100367.13
2022-10-14T17:27:44.283Z,100355.19
2022-10-14T17:32:45.693Z,100348.94
2022-10-14T17:37:47.127Z,100350.13
2022-10-14T17:42:50.337Z,100350.63
2022-10-14T17:47:53.974Z,100353.25
2022-10-14T17:52:58.674Z,100358.53
2022-10-14T17:58:00.364Z,100359.47
2022-10-14T18:03:01.814Z,100352.03
2022-10-14T18:08:03.966Z,100357.81
2022-10-14T18:13:05.406Z,100354.59
2022-10-14T18:18:08.172Z,100358.22
2022-10-14T18:23:10.257Z,100356.34
2022-10-14T18:28:11.695Z,100356.22
2022-10-14T18:33:13.225Z,100348.47
2022-10-14T18:38:14.594Z,100353.66
2022-10-14T18:43:16.017Z,100338.19
2022-10-14T18:48:20.206Z,100343.63
2022-10-14T18:53:21.619Z,100328.13
2022-10-14T18:58:23.012Z,100343.69
2022-10-14T19:03:24.399Z,100328.22
2022-10-14T19:08:26.380Z,100328.81
2022-10-14T19:13:28.060Z,100332.44
2022-10-14T19:18:30.086Z,100328.81
2022-10-14T19:23:31.790Z,100327.97
2022-10-14T19:28:33.684Z,100328.75
2022-10-14T19:33:37.187Z,100322.63
2022-10-14T19:38:39.778Z,100314.16
2022-10-14T19:43:41.223Z,100304.00
2022-10-14T19:48:42.684Z,100304.97
2022-10-14T19:53:44.135Z,100285.94
2022-10-14T19:58:50.553Z,100294.25
2022-10-14T20:03:53.314Z,100291.81
2022-10-14T20:08:54.814Z,100295.03
2022-10-14T20:13:56.372Z,100295.25
2022-10-14T20:18:57.900Z,100282.91
2022-10-14T20:23:59.755Z,100281.19
2022-10-14T20:29:01.289Z,100281.19
2022-10-14T20:34:04.275Z,100275.75
2022-10-14T20:39:07.630Z,100274.75
2022-10-14T20:44:09.062Z,100276.47
2022-10-14T20:49:11.067Z,100269.53
2022-10-14T20:54:12.493Z,100265.59
2022-10-14T20:59:14.323Z,100267.81
2022-10-14T21:04:15.742Z,100264.53
2022-10-14T21:09:17.911Z,100273.81
2022-10-14T21:14:19.319Z,100272.09
2022-10-14T21:19:21.864Z,100280.59
2022-10-14T21:24:25.345Z,100282.63
2022-10-14T21:29:27.073Z,100284.03
2022-10-14T21:34:29.953Z,100262.22
2022-10-14T21:39:31.431Z,100274.47
2022-10-14T21:44:32.909Z,100270.84
2022-10-14T21:49:34.299Z,100267.19
2022-10-14T21:54:35.701Z,100274.47
2022-10-14T21:59:37.317Z,100259.09
2022-10-14T22:04:38.711Z,100271.94
2022-10-14T22:09:40.098Z,100257.66
2022-10-14T22:14:41.574Z,100268.97
2022-10-14T22:19:42.974Z,100272.25
2022-10-14T22:24:44.355Z,100273.97
2022-10-14T22:29:45.925Z,100256.34
2022-10-14T22:34:47.634Z,100263.50
2022-10-14T22:39:49.098Z,100272.19
2022-10-14T22:44:50.525Z,100263.34
2022-10-14T22:49:52.031Z,100262.38
2022-10-14T22:54:53.453Z,100263.25
2022-10-14T22:59:54.870Z,100272.78
2022-10-14T23:04:56.377Z,100261.06
2022-10-14T23:09:58.167Z,100260.34
2022-10-14T23:14:59.580Z,100253.31
2022-10-14T23:20:00.998Z,100258.78
2022-10-14T23:25:02.432Z,100244.00
2022-10-14T23:30:04.535Z,100242.16
2022-10-14T23:35:06.163Z,100238.69
2022-10-14T23:40:08.530Z,100247.34
2022-10-14T23:45:10.670Z,100245.47
2022-10-14T23:50:12.138Z,100251.47
2022-10-14T23:55:14.175Z,100242.00
